This is the latest recevied weather packets stored in our database for station/object KD6VPH. If no packets are shown the sender has not sent any weather packets the latest 10 day(s).
| Time | Temp. | Humidity | Pressure | Rain* | Wind** | Luminosity | Snow |
|---|---|---|---|---|---|---|---|
| 1777926910 | 25° C | 56% | 1009.5 hPa | 0 mm | - | 1338 W/m² | - |
| 1777926310 | 24.44° C | 55% | 1009.7 hPa | 0 mm | - | 1264 W/m² | - |
| 1777925710 | 24.44° C | 58% | 1009.8 hPa | 0 mm | - | 1225 W/m² | - |
| 1777925110 | 23.89° C | 58% | 1009.8 hPa | 0 mm | - | 1266 W/m² | - |
| 1777924510 | 23.33° C | 58% | 1009.8 hPa | 0 mm | - | 1197 W/m² | - |
| 1777923360 | 22.78° C | 60% | 1009.7 hPa | 0 mm | - | 1120 W/m² | - |
| 1777923310 | 22.78° C | 60% | 1009.7 hPa | 0 mm | - | 1120 W/m² | - |
| 1777922710 | 22.78° C | 63% | 1009.7 hPa | 0 mm | - | 1165 W/m² | - |
| 1777922111 | 22.22° C | 62% | 1009.9 hPa | 0 mm | - | 1141 W/m² | - |
| 1777921510 | 21.67° C | 63% | 1010 hPa | 0 mm | - | 1053 W/m² | - |
| 1777918511 | 20.56° C | 66% | 1010.2 hPa | 0 mm | - | 1095 W/m² | - |
| 1777913111 | 16.67° C | 75% | 1009.7 hPa | 0 mm | - | 114 W/m² | - |
| 1777906511 | 10° C | 90% | 1009 hPa | 0 mm | - | 54 W/m² | - |
| 1777903511 | 8.89° C | 89% | 1008.8 hPa | 0 mm | - | 44 W/m² | - |
| 1777899311 | 8.89° C | 88% | 1008.2 hPa | 0 mm | - | 0 W/m² | - |
| 1777898712 | 8.89° C | 87% | 1008 hPa | 0 mm | - | 0 W/m² | - |
| 1777898112 | 9.44° C | 88% | 1007.9 hPa | 0 mm | - | 0 W/m² | - |
| 1777897512 | 9.44° C | 88% | 1008 hPa | 0 mm | - | 0 W/m² | - |
| 1777896311 | 9.44° C | 87% | 1007.8 hPa | 0 mm | - | 0 W/m² | - |
| 1777895712 | 10° C | 87% | 1007.8 hPa | 0 mm | - | 0 W/m² | - |
| 1777895112 | 10° C | 87% | 1007.8 hPa | 0 mm | - | 0 W/m² | - |
| 1777894512 | 10° C | 87% | 1007.7 hPa | 0 mm | - | 0 W/m² | - |
| 1777893911 | 10° C | 87% | 1007.8 hPa | 0 mm | - | 0 W/m² | - |
| 1777893312 | 10° C | 87% | 1007.8 hPa | 0 mm | - | 0 W/m² | - |
| 1777892712 | 10.56° C | 86% | 1007.8 hPa | 0 mm | - | 0 W/m² | - |
* Rain latest hour (hover to see other rain measurements)
** Current wind speed in m/s (hover to see current wind gust speed)